createdAt,value
2018-02-24T00:00:49.757Z,101438
2018-02-24T00:03:17.855Z,101429
2018-02-24T00:05:45.987Z,101421
2018-02-24T00:08:14.113Z,101410
2018-02-24T00:10:42.241Z,101410
2018-02-24T00:13:10.381Z,101417
2018-02-24T00:15:39.271Z,101421
2018-02-24T00:18:07.504Z,101423
2018-02-24T00:20:35.573Z,101418
2018-02-24T00:23:05.621Z,101427
2018-02-24T00:25:34.504Z,101419
2018-02-24T00:28:02.605Z,101429
2018-02-24T00:30:31.475Z,101428
2018-02-24T00:33:00.473Z,101434
2018-02-24T00:35:28.821Z,101429
2018-02-24T00:37:56.932Z,101425
2018-02-24T00:40:25.801Z,101427
2018-02-24T00:42:53.917Z,101427
2018-02-24T00:45:22.028Z,101416
2018-02-24T00:47:50.139Z,101419
2018-02-24T00:50:18.998Z,101416
2018-02-24T00:52:47.129Z,101412
2018-02-24T00:55:15.263Z,101419
2018-02-24T00:57:43.382Z,101423
2018-02-24T01:00:11.492Z,101425
2018-02-24T01:02:39.627Z,101420
2018-02-24T01:05:07.797Z,101430
2018-02-24T01:07:35.884Z,101427
2018-02-24T01:10:04.039Z,101420
2018-02-24T01:12:32.164Z,101427
2018-02-24T01:15:00.263Z,101429
2018-02-24T01:17:29.148Z,101426
2018-02-24T01:19:58.015Z,101418
2018-02-24T01:22:26.147Z,101424
2018-02-24T01:24:54.252Z,101417
2018-02-24T01:27:22.355Z,101421
2018-02-24T01:29:50.472Z,101420
2018-02-24T01:32:18.595Z,101411
2018-02-24T01:34:47.460Z,101417
2018-02-24T01:37:15.579Z,101417
2018-02-24T01:39:43.689Z,101426
2018-02-24T01:42:11.792Z,101419
2018-02-24T01:44:39.889Z,101435
2018-02-24T01:47:07.997Z,101440
2018-02-24T01:49:36.110Z,101431
2018-02-24T01:52:04.211Z,101442
2018-02-24T01:54:33.101Z,101442
2018-02-24T01:57:02.309Z,101438
2018-02-24T01:59:30.453Z,101439
2018-02-24T02:01:58.576Z,101440
2018-02-24T02:04:26.687Z,101453
2018-02-24T02:06:54.786Z,101441
2018-02-24T02:09:23.645Z,101452
2018-02-24T02:11:51.773Z,101442
2018-02-24T02:14:19.890Z,101446
2018-02-24T02:16:48.009Z,101440
2018-02-24T02:19:16.113Z,101444
2018-02-24T02:21:44.220Z,101453
2018-02-24T02:24:12.338Z,101451
2018-02-24T02:26:40.487Z,101452
2018-02-24T02:29:08.605Z,101437
2018-02-24T02:31:36.702Z,101453
2018-02-24T02:34:04.855Z,101447
2018-02-24T02:36:32.916Z,101456
2018-02-24T02:39:01.019Z,101441
2018-02-24T02:41:29.133Z,101451
2018-02-24T02:43:57.212Z,101451
2018-02-24T02:46:25.308Z,101449
2018-02-24T02:48:53.432Z,101437
2018-02-24T02:51:22.303Z,101442
2018-02-24T02:53:50.404Z,101436
2018-02-24T02:56:18.517Z,101441
2018-02-24T02:58:46.616Z,101440
2018-02-24T03:01:14.744Z,101446
2018-02-24T03:03:42.836Z,101447
2018-02-24T03:06:10.945Z,101454
2018-02-24T03:08:39.975Z,101464
2018-02-24T03:11:08.079Z,101458
2018-02-24T03:13:36.205Z,101459
2018-02-24T03:16:04.312Z,101469
2018-02-24T03:18:32.423Z,101466
2018-02-24T03:21:00.572Z,101473
2018-02-24T03:23:28.668Z,101476
2018-02-24T03:25:56.800Z,101473
2018-02-24T03:28:24.931Z,101462
2018-02-24T03:30:53.805Z,101474
2018-02-24T03:33:21.896Z,101467
2018-02-24T03:35:50.789Z,101468
2018-02-24T03:38:19.660Z,101458
2018-02-24T03:40:47.771Z,101470
2018-02-24T03:43:15.870Z,101471
2018-02-24T03:46:00.723Z,101471
2018-02-24T03:48:28.856Z,101477
2018-02-24T03:50:56.973Z,101476
2018-02-24T03:53:25.083Z,101480
2018-02-24T03:55:53.183Z,101487
2018-02-24T03:58:22.080Z,101490
2018-02-24T04:00:50.188Z,101484
2018-02-24T04:03:18.333Z,101481
2018-02-24T04:05:46.433Z,101485
2018-02-24T04:08:14.518Z,101495
2018-02-24T04:10:42.619Z,101492
2018-02-24T04:13:10.732Z,101494
2018-02-24T04:15:38.892Z,101495
2018-02-24T04:18:07.000Z,101500
2018-02-24T04:20:35.151Z,101509
2018-02-24T04:23:03.249Z,101498
2018-02-24T04:25:31.367Z,101496
2018-02-24T04:28:00.254Z,101490
2018-02-24T04:30:29.147Z,101498
2018-02-24T04:32:58.003Z,101488
2018-02-24T04:35:26.106Z,101496
2018-02-24T04:37:54.979Z,101490
2018-02-24T04:40:23.072Z,101488
2018-02-24T04:42:51.956Z,101476
2018-02-24T04:45:20.069Z,101488
2018-02-24T04:47:48.184Z,101477
2018-02-24T04:50:16.279Z,101483
2018-02-24T04:52:44.399Z,101485
2018-02-24T04:55:12.480Z,101489
2018-02-24T04:57:40.592Z,101490
2018-02-24T05:00:08.694Z,101489
2018-02-24T05:02:36.845Z,101494
2018-02-24T05:05:05.740Z,101489
2018-02-24T05:07:34.589Z,101494
2018-02-24T05:10:02.744Z,101495
2018-02-24T05:12:30.838Z,101485
2018-02-24T05:14:58.954Z,101489
2018-02-24T05:17:27.834Z,101479
2018-02-24T05:19:56.679Z,101499
2018-02-24T05:22:24.783Z,101481
2018-02-24T05:24:52.914Z,101494
2018-02-24T05:27:21.032Z,101493
2018-02-24T05:29:49.164Z,101500
2018-02-24T05:32:17.696Z,101496
2018-02-24T05:34:45.800Z,101497
2018-02-24T05:37:13.893Z,101493
2018-02-24T05:39:41.995Z,101498
2018-02-24T05:42:10.097Z,101496
2018-02-24T05:44:38.211Z,101489
2018-02-24T05:47:07.200Z,101494
2018-02-24T05:49:35.638Z,101494
2018-02-24T05:52:04.325Z,101486
2018-02-24T05:54:32.597Z,101491
2018-02-24T05:57:01.485Z,101505
2018-02-24T05:59:29.587Z,101490
2018-02-24T06:01:57.708Z,101503
2018-02-24T06:04:25.816Z,101485
2018-02-24T06:06:54.700Z,101511
2018-02-24T06:09:23.564Z,101509
2018-02-24T06:11:51.688Z,101506
2018-02-24T06:14:19.801Z,101514
2018-02-24T06:16:47.914Z,101513
2018-02-24T06:19:16.782Z,101506
2018-02-24T06:21:44.876Z,101510
2018-02-24T06:24:12.999Z,101524
2018-02-24T06:26:41.091Z,101534
2018-02-24T06:29:09.196Z,101534
2018-02-24T06:31:38.067Z,101537
2018-02-24T06:34:06.233Z,101539
2018-02-24T06:36:34.335Z,101536
2018-02-24T06:39:03.212Z,101537
2018-02-24T06:41:31.313Z,101539
2018-02-24T06:43:59.440Z,101549
2018-02-24T06:46:27.567Z,101546
2018-02-24T06:48:55.677Z,101558
2018-02-24T06:51:23.792Z,101557
2018-02-24T06:53:52.675Z,101559
2018-02-24T06:56:25.187Z,101561
2018-02-24T06:58:53.297Z,101558
2018-02-24T07:01:21.393Z,101568
2018-02-24T07:03:50.283Z,101559
2018-02-24T07:06:18.410Z,101568
2018-02-24T07:08:46.498Z,101561
2018-02-24T07:11:14.608Z,101568
2018-02-24T07:13:42.728Z,101568
2018-02-24T07:16:10.852Z,101577
2018-02-24T07:18:39.729Z,101562
2018-02-24T07:21:07.877Z,101568
2018-02-24T07:23:36.048Z,101576
2018-02-24T07:26:04.197Z,101582
2018-02-24T07:28:33.033Z,101575
2018-02-24T07:31:01.167Z,101575
2018-02-24T07:33:29.277Z,101584
2018-02-24T07:35:57.461Z,101576
2018-02-24T07:38:25.577Z,101574
2018-02-24T07:40:53.664Z,101567
2018-02-24T07:43:21.750Z,101566
2018-02-24T07:45:49.871Z,101579
2018-02-24T07:48:17.973Z,101579
2018-02-24T07:50:46.057Z,101586
2018-02-24T07:53:14.178Z,101585
2018-02-24T07:55:43.037Z,101585
2018-02-24T07:58:11.155Z,101587
2018-02-24T08:00:39.252Z,101594
2018-02-24T08:03:07.393Z,101596
2018-02-24T08:05:36.248Z,101592
2018-02-24T08:08:04.366Z,101601
2018-02-24T08:10:32.456Z,101591
2018-02-24T08:13:00.576Z,101602
2018-02-24T08:15:28.687Z,101592
2018-02-24T08:17:56.786Z,101601
2018-02-24T08:20:24.907Z,101605
2018-02-24T08:22:53.007Z,101598
2018-02-24T08:25:21.135Z,101589
2018-02-24T08:27:49.220Z,101603
2018-02-24T08:30:18.087Z,101600
2018-02-24T08:32:46.212Z,101609
2018-02-24T08:35:14.308Z,101601
2018-02-24T08:37:43.204Z,101605
2018-02-24T08:40:12.054Z,101599
2018-02-24T08:42:40.937Z,101598
2018-02-24T08:45:09.830Z,101603
2018-02-24T08:47:38.690Z,101608
2018-02-24T08:50:06.814Z,101614
2018-02-24T08:52:34.928Z,101622
2018-02-24T08:55:03.031Z,101612
2018-02-24T08:57:31.152Z,101613
2018-02-24T08:59:59.253Z,101617
2018-02-24T09:02:27.392Z,101626
2018-02-24T09:04:56.423Z,101619
2018-02-24T09:07:24.511Z,101622
2018-02-24T09:09:52.624Z,101620
2018-02-24T09:12:20.735Z,101629
2018-02-24T09:14:48.826Z,101630
2018-02-24T09:17:16.936Z,101627
2018-02-24T09:19:45.066Z,101631
2018-02-24T09:22:13.221Z,101637
2018-02-24T09:24:41.288Z,101642
2018-02-24T09:27:09.393Z,101652
2018-02-24T09:29:38.271Z,101642
2018-02-24T09:32:06.400Z,101640
2018-02-24T09:34:34.516Z,101645
2018-02-24T09:37:02.623Z,101651
2018-02-24T09:39:31.584Z,101653
2018-02-24T09:41:59.724Z,101647
2018-02-24T09:44:31.365Z,101651
2018-02-24T09:46:59.449Z,101650
2018-02-24T09:49:27.563Z,101653
2018-02-24T09:51:56.403Z,101650
2018-02-24T09:54:24.495Z,101656
2018-02-24T09:56:52.592Z,101664
2018-02-24T09:59:20.684Z,101657
2018-02-24T10:01:48.792Z,101673
2018-02-24T10:04:16.892Z,101671
2018-02-24T10:06:44.979Z,101681
2018-02-24T10:09:13.081Z,101676
2018-02-24T10:11:41.970Z,101677
2018-02-24T10:14:10.086Z,101682
2018-02-24T10:16:38.679Z,101680
2018-02-24T10:19:07.139Z,101689
2018-02-24T10:21:35.256Z,101682
2018-02-24T10:24:03.376Z,101682
2018-02-24T10:26:31.488Z,101681
2018-02-24T10:28:59.595Z,101684
2018-02-24T10:31:27.705Z,101693
2018-02-24T10:33:55.809Z,101685
2018-02-24T10:36:24.678Z,101683
2018-02-24T10:38:52.780Z,101682
2018-02-24T10:41:20.925Z,101682
2018-02-24T10:43:50.059Z,101690
2018-02-24T10:46:18.952Z,101685
2018-02-24T10:48:47.286Z,101682
2018-02-24T10:51:15.418Z,101686
2018-02-24T10:53:44.355Z,101691
2018-02-24T10:56:12.866Z,101686
2018-02-24T10:58:41.110Z,101693
2018-02-24T11:01:09.401Z,101690
2018-02-24T11:03:37.509Z,101691
2018-02-24T11:06:05.741Z,101687
2018-02-24T11:08:33.937Z,101684
2018-02-24T11:11:02.033Z,101695
2018-02-24T11:13:30.898Z,101679
2018-02-24T11:15:59.006Z,101685
2018-02-24T11:18:27.101Z,101682
2018-02-24T11:20:55.376Z,101688
2018-02-24T11:23:24.579Z,101676
2018-02-24T11:25:53.184Z,101681
2018-02-24T11:28:21.433Z,101681
2018-02-24T11:30:49.604Z,101678
2018-02-24T11:33:17.944Z,101682
2018-02-24T11:35:46.289Z,101660
2018-02-24T11:38:15.586Z,101662
2018-02-24T11:40:44.416Z,101664
2018-02-24T11:43:12.741Z,101678
2018-02-24T11:45:40.825Z,101674
2018-02-24T11:48:08.935Z,101677
2018-02-24T11:50:37.032Z,101676
2018-02-24T11:53:05.121Z,101672
2018-02-24T11:55:33.248Z,101664
2018-02-24T11:58:02.139Z,101668
2018-02-24T12:00:30.262Z,101671
2018-02-24T12:02:58.355Z,101673
2018-02-24T12:05:26.454Z,101655
2018-02-24T12:07:54.568Z,101664
2018-02-24T12:10:22.670Z,101667
2018-02-24T12:12:50.781Z,101666
2018-02-24T12:15:18.878Z,101665
2018-02-24T12:17:46.996Z,101659
2018-02-24T12:20:15.857Z,101671
2018-02-24T12:22:43.972Z,101654
2018-02-24T12:25:12.063Z,101664
2018-02-24T12:27:40.155Z,101667
2018-02-24T12:30:08.257Z,101664
2018-02-24T12:32:36.368Z,101657
2018-02-24T12:35:04.461Z,101665
2018-02-24T12:37:33.315Z,101660
2018-02-24T12:40:01.421Z,101655
2018-02-24T12:42:32.375Z,101655
2018-02-24T12:45:00.477Z,101651
2018-02-24T12:47:28.568Z,101649
2018-02-24T12:49:56.721Z,101649
2018-02-24T12:52:24.779Z,101640
2018-02-24T12:54:52.877Z,101644
2018-02-24T12:57:20.965Z,101631
2018-02-24T12:59:49.064Z,101651
2018-02-24T13:02:17.926Z,101652
2018-02-24T13:04:46.032Z,101645
2018-02-24T13:07:14.893Z,101649
2018-02-24T13:09:43.004Z,101651
2018-02-24T13:12:11.872Z,101646
2018-02-24T13:14:39.959Z,101641
2018-02-24T13:17:08.834Z,101647
2018-02-24T13:19:36.921Z,101647
2018-02-24T13:22:05.780Z,101650
2018-02-24T13:24:33.877Z,101648
2018-02-24T13:27:02.727Z,101644
2018-02-24T13:29:30.840Z,101653
2018-02-24T13:31:59.687Z,101649
2018-02-24T13:34:27.781Z,101664
2018-02-24T13:36:55.875Z,101649
2018-02-24T13:39:24.769Z,101660
2018-02-24T13:41:53.628Z,101659
2018-02-24T13:44:21.748Z,101664
2018-02-24T13:46:50.201Z,101665
2018-02-24T13:49:18.322Z,101666
2018-02-24T13:51:46.427Z,101663
2018-02-24T13:54:16.761Z,101660
2018-02-24T13:56:53.364Z,101675
2018-02-24T13:59:22.380Z,101667
2018-02-24T14:01:50.993Z,101656
2018-02-24T14:04:19.484Z,101672
2018-02-24T14:06:48.360Z,101661
2018-02-24T14:09:16.687Z,101673
2018-02-24T14:11:44.744Z,101667
2018-02-24T14:14:12.828Z,101670
2018-02-24T14:16:41.695Z,101658
2018-02-24T14:19:09.802Z,101674
2018-02-24T14:21:37.912Z,101669
2018-02-24T14:24:06.018Z,101666
2018-02-24T14:26:34.117Z,101659
2018-02-24T14:29:02.203Z,101662
2018-02-24T14:31:30.300Z,101650
2018-02-24T14:33:58.413Z,101649
2018-02-24T14:36:26.531Z,101656
2018-02-24T14:38:54.641Z,101649
2018-02-24T14:41:22.748Z,101651
2018-02-24T14:43:51.607Z,101655
2018-02-24T14:46:19.740Z,101667
2018-02-24T14:48:47.841Z,101660
2018-02-24T14:51:15.952Z,101661
2018-02-24T14:53:44.046Z,101662
2018-02-24T14:56:12.155Z,101662
2018-02-24T14:58:40.259Z,101669
2018-02-24T15:01:09.163Z,101665
2018-02-24T15:03:38.052Z,101668
2018-02-24T15:06:06.931Z,101672
2018-02-24T15:08:36.050Z,101678
2018-02-24T15:11:04.162Z,101683
2018-02-24T15:13:32.259Z,101678
2018-02-24T15:16:00.394Z,101682
2018-02-24T15:18:28.477Z,101679
2018-02-24T15:20:56.577Z,101691
2018-02-24T15:23:24.665Z,101688
2018-02-24T15:25:53.566Z,101697
2018-02-24T15:28:22.446Z,101692
2018-02-24T15:30:51.307Z,101706
2018-02-24T15:33:19.401Z,101693
2018-02-24T15:35:47.488Z,101697
2018-02-24T15:38:15.608Z,101694
2018-02-24T15:40:44.456Z,101694
2018-02-24T15:43:13.355Z,101702
2018-02-24T15:45:41.465Z,101703
2018-02-24T15:48:09.575Z,101706
2018-02-24T15:50:37.697Z,101709
2018-02-24T15:53:05.794Z,101710
2018-02-24T15:55:33.904Z,101715
2018-02-24T15:58:02.756Z,101708
2018-02-24T16:00:30.873Z,101719
2018-02-24T16:02:59.745Z,101714
2018-02-24T16:05:28.623Z,101726
2018-02-24T16:07:56.757Z,101728
2018-02-24T16:10:24.854Z,101722
2018-02-24T16:12:52.976Z,101721
2018-02-24T16:15:21.077Z,101731
2018-02-24T16:17:49.176Z,101726
2018-02-24T16:20:17.283Z,101727
2018-02-24T16:22:46.161Z,101719
2018-02-24T16:25:14.260Z,101723
2018-02-24T16:27:42.365Z,101727
2018-02-24T16:30:10.470Z,101736
2018-02-24T16:32:38.560Z,101733
2018-02-24T16:35:08.502Z,101742
2018-02-24T16:37:36.628Z,101735
2018-02-24T16:40:04.735Z,101749
2018-02-24T16:42:32.853Z,101742
2018-02-24T16:45:00.928Z,101743
2018-02-24T16:47:29.057Z,101752
2018-02-24T16:49:57.175Z,101751
2018-02-24T16:52:25.281Z,101742
2018-02-24T16:54:53.384Z,101752
2018-02-24T16:57:21.492Z,101748
2018-02-24T16:59:49.588Z,101748
2018-02-24T17:02:17.748Z,101751
2018-02-24T17:04:45.847Z,101752
2018-02-24T17:07:14.740Z,101755
2018-02-24T17:09:43.628Z,101752
2018-02-24T17:12:12.581Z,101758
2018-02-24T17:14:40.686Z,101645
2018-02-24T17:17:08.779Z,101761
2018-02-24T17:19:37.652Z,101778
2018-02-24T17:22:05.759Z,101772
2018-02-24T17:24:33.857Z,101785
2018-02-24T17:27:01.986Z,101777
2018-02-24T17:29:30.872Z,101771
2018-02-24T17:31:59.731Z,101768
2018-02-24T17:34:27.870Z,101782
2018-02-24T17:36:55.979Z,101780
2018-02-24T17:39:24.087Z,101779
2018-02-24T17:41:52.971Z,101785
2018-02-24T17:44:21.822Z,101785
2018-02-24T17:46:49.936Z,101790
2018-02-24T17:49:18.821Z,101787
2018-02-24T17:51:46.969Z,101793
2018-02-24T17:54:15.077Z,101795
2018-02-24T17:56:43.931Z,101779
2018-02-24T17:59:12.069Z,101795
2018-02-24T18:01:40.180Z,101794
2018-02-24T18:04:08.320Z,101802
2018-02-24T18:06:36.455Z,101800
2018-02-24T18:09:05.395Z,101793
2018-02-24T18:11:33.524Z,101795
2018-02-24T18:14:02.394Z,101808
2018-02-24T18:16:30.502Z,101810
2018-02-24T18:18:58.616Z,101811
2018-02-24T18:21:26.744Z,101811
2018-02-24T18:23:58.201Z,101815
2018-02-24T18:26:27.273Z,101812
2018-02-24T18:28:56.152Z,101803
2018-02-24T18:31:24.288Z,101812
2018-02-24T18:33:52.385Z,101821
2018-02-24T18:36:20.499Z,101811
2018-02-24T18:38:48.627Z,101816
2018-02-24T18:41:16.754Z,101826
2018-02-24T18:43:44.867Z,101819
2018-02-24T18:46:12.989Z,101817
2018-02-24T18:48:41.106Z,101826
2018-02-24T18:51:09.264Z,101816
2018-02-24T18:53:37.372Z,101819
2018-02-24T18:56:05.504Z,101811
2018-02-24T18:58:33.622Z,101822
2018-02-24T19:01:01.743Z,101819
2018-02-24T19:03:29.864Z,101821
2018-02-24T19:05:57.974Z,101823
2018-02-24T19:08:26.080Z,101827
2018-02-24T19:10:54.209Z,101828
2018-02-24T19:13:23.100Z,101826
2018-02-24T19:15:54.020Z,101834
2018-02-24T19:18:22.131Z,101719
2018-02-24T19:20:50.261Z,101836
2018-02-24T19:23:18.381Z,101840
2018-02-24T19:25:46.487Z,101840
2018-02-24T19:28:14.576Z,101841
2018-02-24T19:30:42.750Z,101846
2018-02-24T19:33:10.812Z,101837
2018-02-24T19:35:38.917Z,101851
2018-02-24T19:38:07.813Z,101842
2018-02-24T19:40:36.689Z,101843
2018-02-24T19:43:04.772Z,101835
2018-02-24T19:45:33.649Z,101844
2018-02-24T19:48:01.726Z,101837
2018-02-24T19:50:29.847Z,101841
2018-02-24T19:52:57.945Z,101843
2018-02-24T19:55:26.036Z,101843
2018-02-24T19:57:54.135Z,101842
2018-02-24T20:00:22.253Z,101848
2018-02-24T20:02:50.356Z,101837
2018-02-24T20:05:18.491Z,101844
2018-02-24T20:07:46.585Z,101840
2018-02-24T20:10:14.682Z,101839
2018-02-24T20:12:42.849Z,101837
2018-02-24T20:15:10.964Z,101840
2018-02-24T20:17:39.083Z,101844
2018-02-24T20:20:07.159Z,101847
2018-02-24T20:22:35.291Z,101843
2018-02-24T20:25:03.416Z,101854
2018-02-24T20:27:32.296Z,101854
2018-02-24T20:30:00.376Z,101858
2018-02-24T20:32:29.482Z,101852
2018-02-24T20:34:57.583Z,101858
2018-02-24T20:37:25.699Z,101858
2018-02-24T20:39:53.796Z,101856
2018-02-24T20:42:21.919Z,101863
2018-02-24T20:44:50.032Z,101870
2018-02-24T20:47:18.117Z,101764
2018-02-24T20:49:47.003Z,101873
2018-02-24T20:52:15.885Z,101870
2018-02-24T20:54:44.044Z,101882
2018-02-24T20:57:12.141Z,101876
2018-02-24T20:59:40.229Z,101880
2018-02-24T21:02:09.432Z,101889
2018-02-24T21:04:37.537Z,101888
2018-02-24T21:07:05.650Z,101890
2018-02-24T21:09:33.778Z,101889
2018-02-24T21:12:01.863Z,101893
2018-02-24T21:14:29.964Z,101904
2018-02-24T21:16:58.088Z,101898
2018-02-24T21:19:26.208Z,101904
2018-02-24T21:21:54.389Z,101908
2018-02-24T21:24:22.453Z,101903
2018-02-24T21:26:50.565Z,101905
2018-02-24T21:29:18.667Z,101897
2018-02-24T21:31:46.775Z,101895
2018-02-24T21:34:14.859Z,101899
2018-02-24T21:36:42.976Z,101900
2018-02-24T21:39:11.126Z,101900
2018-02-24T21:41:39.221Z,101897
2018-02-24T21:44:07.327Z,101906
2018-02-24T21:46:35.438Z,101895
2018-02-24T21:49:03.557Z,101897
2018-02-24T21:51:31.677Z,101909
2018-02-24T21:53:59.769Z,101902
2018-02-24T21:56:27.885Z,101903
2018-02-24T21:58:55.998Z,101913
2018-02-24T22:01:24.212Z,101905
2018-02-24T22:03:52.311Z,101898
2018-02-24T22:06:20.449Z,101905
2018-02-24T22:08:48.546Z,101896
2018-02-24T22:11:16.665Z,101902
2018-02-24T22:13:44.769Z,101906
2018-02-24T22:16:12.896Z,101907
2018-02-24T22:18:41.776Z,101911
2018-02-24T22:21:10.632Z,101916
2018-02-24T22:23:38.754Z,101923
2018-02-24T22:26:07.616Z,101921
2018-02-24T22:28:35.725Z,101921
2018-02-24T22:31:03.829Z,101928
2018-02-24T22:33:31.952Z,101932
2018-02-24T22:36:00.821Z,101940
2018-02-24T22:38:28.927Z,101944
2018-02-24T22:40:57.792Z,101932
2018-02-24T22:43:25.933Z,101947
2018-02-24T22:45:55.014Z,101942
2018-02-24T22:48:28.568Z,101938
2018-02-24T22:50:57.449Z,101938
2018-02-24T22:53:25.539Z,101942
2018-02-24T22:55:53.648Z,101928
2018-02-24T22:58:21.764Z,101925
2018-02-24T23:00:49.882Z,101928
2018-02-24T23:03:17.968Z,101934
2018-02-24T23:05:46.081Z,101936
2018-02-24T23:08:14.271Z,101928
2018-02-24T23:10:42.513Z,101943
2018-02-24T23:13:10.620Z,101923
2018-02-24T23:15:39.483Z,101935
2018-02-24T23:18:07.591Z,101933
2018-02-24T23:20:36.471Z,101938
2018-02-24T23:23:04.573Z,101936
2018-02-24T23:25:32.715Z,101937
2018-02-24T23:28:00.809Z,101924
2018-02-24T23:30:29.684Z,101924
2018-02-24T23:32:58.542Z,101933
2018-02-24T23:35:26.651Z,101945
2018-02-24T23:37:55.558Z,101928
2018-02-24T23:40:23.643Z,101932
2018-02-24T23:42:51.749Z,101923
2018-02-24T23:45:19.844Z,101924
2018-02-24T23:47:47.939Z,101935
2018-02-24T23:50:16.799Z,101924
2018-02-24T23:52:44.924Z,101921
2018-02-24T23:55:13.951Z,101923
2018-02-24T23:57:42.060Z,101919
